sensor_id;sensor_type;location;lat;lon;timestamp;pressure;altitude;pressure_sealevel;temperature;humidity
55217;BME280;41086;46.736;15.666;2023-05-08T00:03:10;98798.22;;;12.83;100.00
55217;BME280;41086;46.736;15.666;2023-05-08T00:06:27;98793.25;;;12.78;100.00
55217;BME280;41086;46.736;15.666;2023-05-08T00:09:44;98793.66;;;12.72;100.00
55217;BME280;41086;46.736;15.666;2023-05-08T00:13:02;98803.25;;;12.62;100.00
55217;BME280;41086;46.736;15.666;2023-05-08T00:16:19;98827.84;;;12.53;100.00
55217;BME280;41086;46.736;15.666;2023-05-08T00:19:36;98819.78;;;12.54;100.00
55217;BME280;41086;46.736;15.666;2023-05-08T00:22:54;98826.16;;;12.52;100.00
55217;BME280;41086;46.736;15.666;2023-05-08T00:26:12;98836.50;;;12.44;100.00
55217;BME280;41086;46.736;15.666;2023-05-08T00:29:29;98830.75;;;12.37;100.00
55217;BME280;41086;46.736;15.666;2023-05-08T00:32:46;98842.66;;;12.18;100.00
55217;BME280;41086;46.736;15.666;2023-05-08T00:36:04;98829.81;;;12.12;100.00
55217;BME280;41086;46.736;15.666;2023-05-08T00:39:22;98834.91;;;12.03;100.00
55217;BME280;41086;46.736;15.666;2023-05-08T00:42:39;98841.06;;;11.90;100.00
55217;BME280;41086;46.736;15.666;2023-05-08T00:45:58;98846.69;;;11.86;100.00
55217;BME280;41086;46.736;15.666;2023-05-08T00:49:17;98856.59;;;11.69;100.00
55217;BME280;41086;46.736;15.666;2023-05-08T00:52:35;98874.31;;;11.56;100.00
55217;BME280;41086;46.736;15.666;2023-05-08T00:55:55;98866.44;;;11.54;100.00
55217;BME280;41086;46.736;15.666;2023-05-08T00:59:13;98859.84;;;11.47;100.00
55217;BME280;41086;46.736;15.666;2023-05-08T01:02:32;98866.00;;;11.48;100.00
55217;BME280;41086;46.736;15.666;2023-05-08T01:05:50;98871.97;;;11.51;100.00
55217;BME280;41086;46.736;15.666;2023-05-08T01:09:07;98874.50;;;11.53;100.00
55217;BME280;41086;46.736;15.666;2023-05-08T01:16:04;98872.47;;;11.44;100.00
55217;BME280;41086;46.736;15.666;2023-05-08T01:19:31;98888.25;;;11.32;100.00
55217;BME280;41086;46.736;15.666;2023-05-08T01:26:54;98906.63;;;10.94;100.00
55217;BME280;41086;46.736;15.666;2023-05-08T01:34:07;98903.97;;;10.80;100.00
55217;BME280;41086;46.736;15.666;2023-05-08T01:37:49;98910.44;;;10.76;100.00
55217;BME280;41086;46.736;15.666;2023-05-08T01:41:08;98903.72;;;10.70;100.00
55217;BME280;41086;46.736;15.666;2023-05-08T01:44:46;98900.09;;;10.71;100.00
55217;BME280;41086;46.736;15.666;2023-05-08T01:48:49;98905.59;;;10.68;100.00
55217;BME280;41086;46.736;15.666;2023-05-08T01:51:52;98910.25;;;10.64;100.00
55217;BME280;41086;46.736;15.666;2023-05-08T01:55:16;98914.69;;;10.50;100.00
55217;BME280;41086;46.736;15.666;2023-05-08T01:58:42;98920.38;;;10.43;100.00
55217;BME280;41086;46.736;15.666;2023-05-08T02:02:00;98930.00;;;10.30;100.00
55217;BME280;41086;46.736;15.666;2023-05-08T02:05:20;98939.72;;;10.15;100.00
55217;BME280;41086;46.736;15.666;2023-05-08T02:08:38;98937.09;;;9.99;100.00
55217;BME280;41086;46.736;15.666;2023-05-08T02:11:56;98932.91;;;9.95;100.00
55217;BME280;41086;46.736;15.666;2023-05-08T02:15:16;98937.34;;;9.81;100.00
55217;BME280;41086;46.736;15.666;2023-05-08T02:18:35;98929.06;;;9.71;100.00
55217;BME280;41086;46.736;15.666;2023-05-08T02:21:56;98921.41;;;9.66;100.00
55217;BME280;41086;46.736;15.666;2023-05-08T02:25:14;98935.91;;;9.59;100.00
55217;BME280;41086;46.736;15.666;2023-05-08T02:28:34;98931.84;;;9.53;100.00
55217;BME280;41086;46.736;15.666;2023-05-08T02:31:52;98948.91;;;9.48;100.00
55217;BME280;41086;46.736;15.666;2023-05-08T02:35:16;98933.97;;;9.47;100.00
55217;BME280;41086;46.736;15.666;2023-05-08T02:38:36;98937.38;;;9.33;100.00
55217;BME280;41086;46.736;15.666;2023-05-08T02:41:56;98940.22;;;9.30;100.00
55217;BME280;41086;46.736;15.666;2023-05-08T02:45:13;98943.22;;;9.24;100.00
55217;BME280;41086;46.736;15.666;2023-05-08T02:52:22;98946.63;;;9.26;100.00
55217;BME280;41086;46.736;15.666;2023-05-08T02:56:00;98946.28;;;9.16;100.00
55217;BME280;41086;46.736;15.666;2023-05-08T02:59:45;98950.88;;;9.13;100.00
55217;BME280;41086;46.736;15.666;2023-05-08T03:06:40;98960.94;;;9.06;100.00
55217;BME280;41086;46.736;15.666;2023-05-08T03:10:09;98961.78;;;9.06;100.00
55217;BME280;41086;46.736;15.666;2023-05-08T03:13:30;98956.50;;;9.06;100.00
55217;BME280;41086;46.736;15.666;2023-05-08T03:16:49;98965.47;;;9.04;100.00
55217;BME280;41086;46.736;15.666;2023-05-08T03:20:13;98969.38;;;8.97;100.00
55217;BME280;41086;46.736;15.666;2023-05-08T03:23:32;98983.09;;;8.87;100.00
55217;BME280;41086;46.736;15.666;2023-05-08T03:26:52;98983.56;;;8.78;100.00
55217;BME280;41086;46.736;15.666;2023-05-08T03:30:11;98990.28;;;8.68;100.00
55217;BME280;41086;46.736;15.666;2023-05-08T03:33:35;98983.63;;;8.61;100.00
55217;BME280;41086;46.736;15.666;2023-05-08T03:36:53;98991.16;;;8.51;100.00
55217;BME280;41086;46.736;15.666;2023-05-08T03:40:11;98992.63;;;8.57;100.00
55217;BME280;41086;46.736;15.666;2023-05-08T03:43:31;98980.28;;;8.57;100.00
55217;BME280;41086;46.736;15.666;2023-05-08T03:46:49;98985.66;;;8.56;100.00
55217;BME280;41086;46.736;15.666;2023-05-08T03:50:09;98983.00;;;8.56;100.00
55217;BME280;41086;46.736;15.666;2023-05-08T03:53:28;98991.09;;;8.53;100.00
55217;BME280;41086;46.736;15.666;2023-05-08T03:56:47;98997.00;;;8.58;100.00
55217;BME280;41086;46.736;15.666;2023-05-08T04:00:21;98997.69;;;8.61;100.00
55217;BME280;41086;46.736;15.666;2023-05-08T04:04:05;98999.47;;;8.61;100.00
55217;BME280;41086;46.736;15.666;2023-05-08T04:07:35;99011.13;;;8.57;100.00
55217;BME280;41086;46.736;15.666;2023-05-08T04:11:11;99002.34;;;8.56;100.00
55217;BME280;41086;46.736;15.666;2023-05-08T04:14:54;99007.69;;;8.55;100.00
55217;BME280;41086;46.736;15.666;2023-05-08T04:18:33;99017.34;;;8.56;100.00
55217;BME280;41086;46.736;15.666;2023-05-08T04:21:53;99014.53;;;8.59;100.00
55217;BME280;41086;46.736;15.666;2023-05-08T04:25:15;99023.09;;;8.64;100.00
55217;BME280;41086;46.736;15.666;2023-05-08T04:28:35;99023.94;;;8.64;100.00
55217;BME280;41086;46.736;15.666;2023-05-08T04:31:54;99030.41;;;8.59;100.00
55217;BME280;41086;46.736;15.666;2023-05-08T04:35:12;99039.41;;;8.55;100.00
55217;BME280;41086;46.736;15.666;2023-05-08T04:38:34;99038.94;;;8.64;100.00
55217;BME280;41086;46.736;15.666;2023-05-08T04:41:52;99043.44;;;8.62;100.00
55217;BME280;41086;46.736;15.666;2023-05-08T04:45:12;99042.44;;;8.64;100.00
55217;BME280;41086;46.736;15.666;2023-05-08T04:48:30;99051.38;;;8.62;100.00
55217;BME280;41086;46.736;15.666;2023-05-08T04:51:49;99058.50;;;8.60;100.00
55217;BME280;41086;46.736;15.666;2023-05-08T04:55:07;99059.78;;;8.53;100.00
55217;BME280;41086;46.736;15.666;2023-05-08T04:58:27;99061.63;;;8.51;100.00
55217;BME280;41086;46.736;15.666;2023-05-08T05:01:45;99067.94;;;8.48;100.00
55217;BME280;41086;46.736;15.666;2023-05-08T05:05:03;99070.50;;;8.50;100.00
55217;BME280;41086;46.736;15.666;2023-05-08T05:08:21;99067.88;;;8.50;100.00
55217;BME280;41086;46.736;15.666;2023-05-08T05:11:38;99075.38;;;8.40;100.00
55217;BME280;41086;46.736;15.666;2023-05-08T05:14:56;99081.72;;;8.36;100.00
55217;BME280;41086;46.736;15.666;2023-05-08T05:18:19;99078.88;;;8.40;100.00
55217;BME280;41086;46.736;15.666;2023-05-08T05:21:38;99085.28;;;8.35;100.00
55217;BME280;41086;46.736;15.666;2023-05-08T05:24:55;99086.16;;;8.35;100.00
55217;BME280;41086;46.736;15.666;2023-05-08T05:28:14;99089.72;;;8.34;100.00
55217;BME280;41086;46.736;15.666;2023-05-08T05:31:31;99098.41;;;8.19;100.00
55217;BME280;41086;46.736;15.666;2023-05-08T05:34:49;99090.63;;;8.16;100.00
55217;BME280;41086;46.736;15.666;2023-05-08T05:38:07;99093.91;;;8.21;100.00
55217;BME280;41086;46.736;15.666;2023-05-08T05:41:24;99091.19;;;8.23;100.00
55217;BME280;41086;46.736;15.666;2023-05-08T05:44:42;99096.16;;;8.29;100.00
55217;BME280;41086;46.736;15.666;2023-05-08T05:48:00;99102.50;;;8.25;100.00
55217;BME280;41086;46.736;15.666;2023-05-08T05:51:19;99090.19;;;8.25;100.00
55217;BME280;41086;46.736;15.666;2023-05-08T05:54:37;99088.16;;;8.30;100.00
55217;BME280;41086;46.736;15.666;2023-05-08T05:57:55;99090.66;;;8.33;100.00
55217;BME280;41086;46.736;15.666;2023-05-08T06:01:12;99087.31;;;8.30;100.00
55217;BME280;41086;46.736;15.666;2023-05-08T06:04:29;99089.88;;;8.31;100.00
55217;BME280;41086;46.736;15.666;2023-05-08T06:07:47;99095.91;;;8.16;100.00
55217;BME280;41086;46.736;15.666;2023-05-08T06:11:05;99088.00;;;8.16;100.00
55217;BME280;41086;46.736;15.666;2023-05-08T06:14:22;99091.94;;;8.25;100.00
55217;BME280;41086;46.736;15.666;2023-05-08T06:17:40;99099.66;;;8.29;100.00
55217;BME280;41086;46.736;15.666;2023-05-08T06:20:57;99094.16;;;8.34;100.00
55217;BME280;41086;46.736;15.666;2023-05-08T06:24:16;99098.34;;;8.38;100.00
55217;BME280;41086;46.736;15.666;2023-05-08T06:27:33;99103.78;;;8.35;100.00
55217;BME280;41086;46.736;15.666;2023-05-08T06:30:53;99099.78;;;8.45;100.00
55217;BME280;41086;46.736;15.666;2023-05-08T06:34:10;99099.41;;;8.53;100.00
55217;BME280;41086;46.736;15.666;2023-05-08T06:37:28;99106.94;;;8.60;100.00
55217;BME280;41086;46.736;15.666;2023-05-08T06:40:45;99106.00;;;8.61;100.00
55217;BME280;41086;46.736;15.666;2023-05-08T06:44:03;99104.63;;;8.72;100.00
55217;BME280;41086;46.736;15.666;2023-05-08T06:47:20;99106.00;;;8.79;100.00
55217;BME280;41086;46.736;15.666;2023-05-08T06:50:38;99103.81;;;8.87;100.00
55217;BME280;41086;46.736;15.666;2023-05-08T06:53:56;99111.44;;;8.93;100.00
55217;BME280;41086;46.736;15.666;2023-05-08T06:57:14;99119.59;;;8.88;100.00
55217;BME280;41086;46.736;15.666;2023-05-08T07:00:32;99116.00;;;8.90;100.00
55217;BME280;41086;46.736;15.666;2023-05-08T07:03:49;99125.97;;;8.84;100.00
55217;BME280;41086;46.736;15.666;2023-05-08T07:07:06;99114.16;;;8.92;100.00
55217;BME280;41086;46.736;15.666;2023-05-08T07:10:24;99115.63;;;8.97;100.00
55217;BME280;41086;46.736;15.666;2023-05-08T07:13:42;99122.22;;;9.06;100.00
55217;BME280;41086;46.736;15.666;2023-05-08T07:17:05;99121.97;;;9.10;100.00
55217;BME280;41086;46.736;15.666;2023-05-08T07:20:24;99121.41;;;9.21;100.00
55217;BME280;41086;46.736;15.666;2023-05-08T07:23:42;99128.84;;;9.30;100.00
55217;BME280;41086;46.736;15.666;2023-05-08T07:26:59;99129.06;;;9.43;100.00
55217;BME280;41086;46.736;15.666;2023-05-08T07:30:17;99129.91;;;9.44;100.00
55217;BME280;41086;46.736;15.666;2023-05-08T07:33:34;99132.66;;;9.42;100.00
55217;BME280;41086;46.736;15.666;2023-05-08T07:36:51;99135.09;;;9.29;100.00
55217;BME280;41086;46.736;15.666;2023-05-08T07:40:09;99145.34;;;9.36;100.00
55217;BME280;41086;46.736;15.666;2023-05-08T07:43:32;99142.25;;;9.27;100.00
55217;BME280;41086;46.736;15.666;2023-05-08T07:46:50;99140.38;;;9.29;100.00
55217;BME280;41086;46.736;15.666;2023-05-08T07:50:07;99144.72;;;9.30;100.00
55217;BME280;41086;46.736;15.666;2023-05-08T07:53:25;99142.53;;;9.39;100.00
55217;BME280;41086;46.736;15.666;2023-05-08T07:56:42;99144.44;;;9.37;100.00
55217;BME280;41086;46.736;15.666;2023-05-08T08:00:03;99150.41;;;9.40;100.00
55217;BME280;41086;46.736;15.666;2023-05-08T08:03:29;99143.50;;;9.53;100.00
55217;BME280;41086;46.736;15.666;2023-05-08T08:06:46;99151.59;;;9.35;100.00
55217;BME280;41086;46.736;15.666;2023-05-08T08:10:04;99150.47;;;9.39;100.00
55217;BME280;41086;46.736;15.666;2023-05-08T08:13:21;99144.44;;;9.52;100.00
55217;BME280;41086;46.736;15.666;2023-05-08T08:16:38;99146.78;;;9.59;100.00
55217;BME280;41086;46.736;15.666;2023-05-08T08:19:56;99140.97;;;9.68;100.00
55217;BME280;41086;46.736;15.666;2023-05-08T08:23:14;99146.53;;;9.79;100.00
55217;BME280;41086;46.736;15.666;2023-05-08T08:26:31;99153.53;;;9.64;100.00
55217;BME280;41086;46.736;15.666;2023-05-08T08:29:48;99154.38;;;9.65;100.00
55217;BME280;41086;46.736;15.666;2023-05-08T08:33:14;99147.28;;;9.65;100.00
55217;BME280;41086;46.736;15.666;2023-05-08T08:36:35;99154.28;;;9.82;100.00
55217;BME280;41086;46.736;15.666;2023-05-08T08:39:52;99152.00;;;9.92;100.00
55217;BME280;41086;46.736;15.666;2023-05-08T08:43:09;99155.75;;;10.04;100.00
55217;BME280;41086;46.736;15.666;2023-05-08T08:46:27;99166.28;;;9.89;100.00
55217;BME280;41086;46.736;15.666;2023-05-08T08:49:48;99162.25;;;9.82;100.00
55217;BME280;41086;46.736;15.666;2023-05-08T08:53:30;99167.19;;;9.72;100.00
55217;BME280;41086;46.736;15.666;2023-05-08T08:56:51;99172.13;;;9.63;100.00
55217;BME280;41086;46.736;15.666;2023-05-08T09:00:10;99162.38;;;9.63;100.00
55217;BME280;41086;46.736;15.666;2023-05-08T09:03:31;99158.31;;;9.73;100.00
55217;BME280;41086;46.736;15.666;2023-05-08T09:06:49;99160.53;;;9.81;100.00
55217;BME280;41086;46.736;15.666;2023-05-08T09:10:06;99164.41;;;9.91;100.00
55217;BME280;41086;46.736;15.666;2023-05-08T09:13:24;99160.38;;;10.00;100.00
55217;BME280;41086;46.736;15.666;2023-05-08T09:16:42;99162.69;;;10.06;100.00
55217;BME280;41086;46.736;15.666;2023-05-08T09:20:03;99169.34;;;10.13;100.00
55217;BME280;41086;46.736;15.666;2023-05-08T09:23:21;99171.25;;;10.27;100.00
55217;BME280;41086;46.736;15.666;2023-05-08T09:26:39;99160.91;;;10.38;100.00
55217;BME280;41086;46.736;15.666;2023-05-08T09:30:05;99174.69;;;10.45;100.00
55217;BME280;41086;46.736;15.666;2023-05-08T09:33:28;99166.13;;;10.56;100.00
55217;BME280;41086;46.736;15.666;2023-05-08T09:36:45;99179.06;;;10.60;100.00
55217;BME280;41086;46.736;15.666;2023-05-08T09:43:30;99189.25;;;10.68;100.00
55217;BME280;41086;46.736;15.666;2023-05-08T09:46:48;99188.41;;;10.68;100.00
55217;BME280;41086;46.736;15.666;2023-05-08T09:50:07;99196.53;;;10.64;100.00
55217;BME280;41086;46.736;15.666;2023-05-08T09:53:30;99201.31;;;10.58;100.00
55217;BME280;41086;46.736;15.666;2023-05-08T09:56:47;99204.91;;;10.57;100.00
55217;BME280;41086;46.736;15.666;2023-05-08T10:00:12;99197.56;;;10.46;100.00
55217;BME280;41086;46.736;15.666;2023-05-08T10:03:47;99188.91;;;10.58;100.00
55217;BME280;41086;46.736;15.666;2023-05-08T10:07:05;99180.63;;;10.64;100.00
55217;BME280;41086;46.736;15.666;2023-05-08T10:10:26;99186.09;;;10.61;100.00
55217;BME280;41086;46.736;15.666;2023-05-08T10:13:44;99192.03;;;10.51;100.00
55217;BME280;41086;46.736;15.666;2023-05-08T10:17:06;99183.91;;;10.38;100.00
55217;BME280;41086;46.736;15.666;2023-05-08T10:20:27;99183.31;;;10.33;100.00
55217;BME280;41086;46.736;15.666;2023-05-08T10:23:46;99182.63;;;10.45;100.00
55217;BME280;41086;46.736;15.666;2023-05-08T10:27:22;99184.78;;;10.69;100.00
55217;BME280;41086;46.736;15.666;2023-05-08T10:30:48;99179.44;;;10.84;100.00
55217;BME280;41086;46.736;15.666;2023-05-08T10:34:11;99177.81;;;11.12;100.00
55217;BME280;41086;46.736;15.666;2023-05-08T10:37:29;99182.22;;;10.83;100.00
55217;BME280;41086;46.736;15.666;2023-05-08T10:40:49;99176.13;;;10.35;100.00
55217;BME280;41086;46.736;15.666;2023-05-08T10:44:09;99177.56;;;10.25;100.00
55217;BME280;41086;46.736;15.666;2023-05-08T10:47:35;99173.38;;;10.52;100.00
55217;BME280;41086;46.736;15.666;2023-05-08T10:51:26;99169.63;;;10.56;100.00
55217;BME280;41086;46.736;15.666;2023-05-08T10:58:30;99161.06;;;10.51;100.00
55217;BME280;41086;46.736;15.666;2023-05-08T11:01:48;99163.38;;;10.41;100.00
55217;BME280;41086;46.736;15.666;2023-05-08T11:05:13;99163.31;;;10.43;100.00
55217;BME280;41086;46.736;15.666;2023-05-08T11:08:47;99159.75;;;10.58;100.00
55217;BME280;41086;46.736;15.666;2023-05-08T11:12:26;99161.06;;;10.51;100.00
55217;BME280;41086;46.736;15.666;2023-05-08T11:15:55;99165.56;;;10.65;100.00
55217;BME280;41086;46.736;15.666;2023-05-08T11:19:16;99161.72;;;10.71;100.00
55217;BME280;41086;46.736;15.666;2023-05-08T11:22:53;99163.00;;;10.94;100.00
55217;BME280;41086;46.736;15.666;2023-05-08T11:26:37;99169.19;;;10.94;100.00
55217;BME280;41086;46.736;15.666;2023-05-08T11:33:53;99167.84;;;11.01;100.00
55217;BME280;41086;46.736;15.666;2023-05-08T11:37:11;99161.25;;;11.08;100.00
55217;BME280;41086;46.736;15.666;2023-05-08T11:44:19;99168.88;;;11.43;100.00
55217;BME280;41086;46.736;15.666;2023-05-08T11:47:44;99168.94;;;11.56;100.00
55217;BME280;41086;46.736;15.666;2023-05-08T11:51:02;99168.22;;;11.68;100.00
55217;BME280;41086;46.736;15.666;2023-05-08T11:54:21;99160.06;;;11.57;100.00
55217;BME280;41086;46.736;15.666;2023-05-08T11:57:39;99156.06;;;11.50;100.00
55217;BME280;41086;46.736;15.666;2023-05-08T12:00:57;99163.94;;;11.66;100.00
55217;BME280;41086;46.736;15.666;2023-05-08T12:04:15;99174.22;;;11.86;100.00
55217;BME280;41086;46.736;15.666;2023-05-08T12:07:41;99179.78;;;11.67;100.00
55217;BME280;41086;46.736;15.666;2023-05-08T12:10:59;99169.91;;;11.69;100.00
55217;BME280;41086;46.736;15.666;2023-05-08T12:14:17;99169.06;;;11.69;100.00
55217;BME280;41086;46.736;15.666;2023-05-08T12:17:34;99169.31;;;12.07;100.00
55217;BME280;41086;46.736;15.666;2023-05-08T12:21:02;99174.47;;;11.96;100.00
55217;BME280;41086;46.736;15.666;2023-05-08T12:24:19;99166.31;;;11.99;100.00
55217;BME280;41086;46.736;15.666;2023-05-08T12:27:43;99169.69;;;12.57;100.00
55217;BME280;41086;46.736;15.666;2023-05-08T12:31:03;99181.06;;;12.17;100.00
55217;BME280;41086;46.736;15.666;2023-05-08T12:34:21;99169.03;;;12.12;100.00
55217;BME280;41086;46.736;15.666;2023-05-08T12:37:38;99160.88;;;12.15;100.00
55217;BME280;41086;46.736;15.666;2023-05-08T12:40:57;99168.63;;;12.18;100.00
55217;BME280;41086;46.736;15.666;2023-05-08T12:44:22;99167.03;;;12.42;100.00
55217;BME280;41086;46.736;15.666;2023-05-08T12:47:44;99162.84;;;12.53;100.00
55217;BME280;41086;46.736;15.666;2023-05-08T12:51:04;99169.97;;;12.25;100.00
55217;BME280;41086;46.736;15.666;2023-05-08T12:54:30;99168.91;;;12.55;100.00
55217;BME280;41086;46.736;15.666;2023-05-08T12:58:09;99156.31;;;12.71;100.00
55217;BME280;41086;46.736;15.666;2023-05-08T13:01:32;99156.34;;;12.84;100.00
55217;BME280;41086;46.736;15.666;2023-05-08T13:04:52;99161.69;;;12.97;100.00
55217;BME280;41086;46.736;15.666;2023-05-08T13:08:10;99150.63;;;13.16;100.00
55217;BME280;41086;46.736;15.666;2023-05-08T13:11:34;99147.38;;;12.72;100.00
55217;BME280;41086;46.736;15.666;2023-05-08T13:14:51;99136.94;;;12.69;100.00
55217;BME280;41086;46.736;15.666;2023-05-08T13:18:09;99152.03;;;12.69;100.00
55217;BME280;41086;46.736;15.666;2023-05-08T13:21:26;99139.41;;;12.85;100.00
55217;BME280;41086;46.736;15.666;2023-05-08T13:24:44;99125.81;;;13.02;100.00
55217;BME280;41086;46.736;15.666;2023-05-08T13:28:02;99132.66;;;13.06;100.00
55217;BME280;41086;46.736;15.666;2023-05-08T13:31:19;99142.13;;;13.23;100.00
55217;BME280;41086;46.736;15.666;2023-05-08T13:34:37;99140.50;;;13.08;100.00
55217;BME280;41086;46.736;15.666;2023-05-08T13:38:06;99141.91;;;13.65;100.00
55217;BME280;41086;46.736;15.666;2023-05-08T13:41:23;99149.81;;;13.66;100.00
55217;BME280;41086;46.736;15.666;2023-05-08T13:44:40;99144.06;;;13.34;100.00
55217;BME280;41086;46.736;15.666;2023-05-08T13:47:59;99131.75;;;13.33;100.00
55217;BME280;41086;46.736;15.666;2023-05-08T13:51:16;99124.25;;;13.25;100.00
55217;BME280;41086;46.736;15.666;2023-05-08T13:54:33;99128.84;;;13.36;100.00
55217;BME280;41086;46.736;15.666;2023-05-08T13:57:51;99128.63;;;13.39;100.00
55217;BME280;41086;46.736;15.666;2023-05-08T14:01:08;99127.78;;;13.39;100.00
55217;BME280;41086;46.736;15.666;2023-05-08T14:04:42;99122.63;;;13.74;100.00
55217;BME280;41086;46.736;15.666;2023-05-08T14:07:59;99126.44;;;14.44;100.00
55217;BME280;41086;46.736;15.666;2023-05-08T14:11:16;99125.69;;;14.90;100.00
55217;BME280;41086;46.736;15.666;2023-05-08T14:14:34;99119.06;;;15.06;100.00
55217;BME280;41086;46.736;15.666;2023-05-08T14:17:51;99111.09;;;15.63;100.00
55217;BME280;41086;46.736;15.666;2023-05-08T14:21:08;99114.00;;;15.37;100.00
55217;BME280;41086;46.736;15.666;2023-05-08T14:24:26;99106.25;;;15.45;100.00
55217;BME280;41086;46.736;15.666;2023-05-08T14:27:43;99108.06;;;15.56;100.00
55217;BME280;41086;46.736;15.666;2023-05-08T14:31:01;99111.09;;;16.08;100.00
55217;BME280;41086;46.736;15.666;2023-05-08T14:34:18;99108.44;;;15.97;100.00
55217;BME280;41086;46.736;15.666;2023-05-08T14:37:35;99110.91;;;16.32;100.00
55217;BME280;41086;46.736;15.666;2023-05-08T14:40:53;99109.47;;;16.16;100.00
55217;BME280;41086;46.736;15.666;2023-05-08T14:44:11;99108.69;;;15.93;100.00
55217;BME280;41086;46.736;15.666;2023-05-08T14:47:28;99108.69;;;15.82;100.00
55217;BME280;41086;46.736;15.666;2023-05-08T14:50:47;99101.88;;;15.67;100.00
55217;BME280;41086;46.736;15.666;2023-05-08T14:54:04;99098.09;;;15.24;100.00
55217;BME280;41086;46.736;15.666;2023-05-08T14:57:23;99094.34;;;15.38;100.00
55217;BME280;41086;46.736;15.666;2023-05-08T15:00:40;99091.16;;;15.22;100.00
55217;BME280;41086;46.736;15.666;2023-05-08T15:03:57;99095.31;;;15.48;100.00
55217;BME280;41086;46.736;15.666;2023-05-08T15:07:14;99089.97;;;15.37;100.00
55217;BME280;41086;46.736;15.666;2023-05-08T15:10:32;99088.84;;;15.06;100.00
55217;BME280;41086;46.736;15.666;2023-05-08T15:13:50;99090.03;;;14.91;100.00
55217;BME280;41086;46.736;15.666;2023-05-08T15:17:07;99080.31;;;14.90;100.00
55217;BME280;41086;46.736;15.666;2023-05-08T15:20:24;99092.25;;;14.61;100.00
55217;BME280;41086;46.736;15.666;2023-05-08T15:23:42;99088.75;;;15.19;100.00
55217;BME280;41086;46.736;15.666;2023-05-08T15:26:59;99081.50;;;14.74;100.00
55217;BME280;41086;46.736;15.666;2023-05-08T15:30:20;99080.78;;;14.72;100.00
55217;BME280;41086;46.736;15.666;2023-05-08T15:33:37;99086.31;;;15.04;100.00
55217;BME280;41086;46.736;15.666;2023-05-08T15:37:01;99076.38;;;15.18;100.00
55217;BME280;41086;46.736;15.666;2023-05-08T15:40:18;99088.84;;;15.06;100.00
55217;BME280;41086;46.736;15.666;2023-05-08T15:43:36;99081.56;;;14.97;100.00
55217;BME280;41086;46.736;15.666;2023-05-08T15:46:53;99078.72;;;14.87;100.00
55217;BME280;41086;46.736;15.666;2023-05-08T15:50:10;99078.03;;;14.85;100.00
55217;BME280;41086;46.736;15.666;2023-05-08T15:53:27;99078.34;;;14.45;100.00
55217;BME280;41086;46.736;15.666;2023-05-08T15:56:45;99066.34;;;14.75;100.00
55217;BME280;41086;46.736;15.666;2023-05-08T16:00:02;99073.38;;;14.76;100.00
55217;BME280;41086;46.736;15.666;2023-05-08T16:03:20;99074.59;;;14.72;100.00
55217;BME280;41086;46.736;15.666;2023-05-08T16:06:38;99070.09;;;14.72;100.00
55217;BME280;41086;46.736;15.666;2023-05-08T16:09:56;99075.44;;;14.48;100.00
55217;BME280;41086;46.736;15.666;2023-05-08T16:13:13;99076.44;;;14.23;100.00
55217;BME280;41086;46.736;15.666;2023-05-08T16:16:31;99074.63;;;13.87;100.00
55217;BME280;41086;46.736;15.666;2023-05-08T16:19:48;99089.69;;;13.88;100.00
55217;BME280;41086;46.736;15.666;2023-05-08T16:23:05;99086.88;;;13.89;100.00
55217;BME280;41086;46.736;15.666;2023-05-08T16:26:23;99082.69;;;13.74;100.00
55217;BME280;41086;46.736;15.666;2023-05-08T16:29:40;99082.78;;;13.72;100.00
55217;BME280;41086;46.736;15.666;2023-05-08T16:32:57;99089.41;;;13.67;100.00
55217;BME280;41086;46.736;15.666;2023-05-08T16:36:15;99079.66;;;13.79;100.00
55217;BME280;41086;46.736;15.666;2023-05-08T16:39:33;99083.78;;;13.59;100.00
55217;BME280;41086;46.736;15.666;2023-05-08T16:42:50;99081.56;;;13.40;100.00
55217;BME280;41086;46.736;15.666;2023-05-08T16:46:07;99082.00;;;13.34;100.00
55217;BME280;41086;46.736;15.666;2023-05-08T16:49:25;99092.75;;;13.32;100.00
55217;BME280;41086;46.736;15.666;2023-05-08T16:52:42;99092.31;;;13.25;100.00
55217;BME280;41086;46.736;15.666;2023-05-08T16:55:59;99087.09;;;13.11;100.00
55217;BME280;41086;46.736;15.666;2023-05-08T16:59:17;99091.34;;;13.01;100.00
55217;BME280;41086;46.736;15.666;2023-05-08T17:02:34;99099.00;;;12.93;100.00
55217;BME280;41086;46.736;15.666;2023-05-08T17:05:52;99102.41;;;12.82;100.00
55217;BME280;41086;46.736;15.666;2023-05-08T17:09:09;99098.13;;;12.79;100.00
55217;BME280;41086;46.736;15.666;2023-05-08T17:12:26;99098.00;;;12.68;100.00
55217;BME280;41086;46.736;15.666;2023-05-08T17:15:43;99097.47;;;12.63;100.00
55217;BME280;41086;46.736;15.666;2023-05-08T17:19:01;99096.41;;;12.66;100.00
55217;BME280;41086;46.736;15.666;2023-05-08T17:22:18;99097.16;;;12.68;100.00
55217;BME280;41086;46.736;15.666;2023-05-08T17:25:36;99097.69;;;12.73;100.00
55217;BME280;41086;46.736;15.666;2023-05-08T17:28:53;99105.75;;;12.58;100.00
55217;BME280;41086;46.736;15.666;2023-05-08T17:32:11;99100.72;;;12.54;100.00
55217;BME280;41086;46.736;15.666;2023-05-08T17:35:28;99105.31;;;12.52;100.00
55217;BME280;41086;46.736;15.666;2023-05-08T17:38:45;99109.03;;;12.49;100.00
55217;BME280;41086;46.736;15.666;2023-05-08T17:42:03;99109.53;;;12.41;100.00
55217;BME280;41086;46.736;15.666;2023-05-08T17:45:20;99113.59;;;12.47;100.00
55217;BME280;41086;46.736;15.666;2023-05-08T17:48:38;99110.59;;;12.39;100.00
55217;BME280;41086;46.736;15.666;2023-05-08T17:51:55;99105.97;;;12.28;100.00